Time;durP1;ratioP1;P1;durP2;ratioP2;P2;SDS_P1;SDS_P2;PMS_P1;PMS_P2;Temp;Humidity;BMP_temperature;BMP_pressure;BME280_temperature;BME280_humidity;BME280_pressure;Samples;Min_cycle;Max_cycle;Signal;HPM_P1;HPM_P2
2022/03/17 00:01:13;;;;;;;21.07;11.57;;;;;11.10;101481.00;;;;5105119;28;20234;-66
2022/03/17 00:04:01;;;;;;;20.07;11.80;;;;;11.00;101478.00;;;;5105531;28;20788;-66
2022/03/17 00:06:47;;;;;;;21.47;11.47;;;;;11.10;101482.00;;;;5091812;27;20333;-68
2022/03/17 00:09:34;;;;;;;22.80;12.50;;;;;11.10;101439.00;;;;5091125;28;20226;-66
2022/03/17 00:12:21;;;;;;;20.40;11.97;;;;;11.10;101483.00;;;;5071610;28;20262;-67
2022/03/17 00:15:13;;;;;;;22.47;11.90;;;;;11.20;101483.00;;;;5101689;27;20336;-70
2022/03/17 00:17:59;;;;;;;22.33;12.37;;;;;11.20;101445.00;;;;5097855;27;20227;-65
2022/03/17 00:20:47;;;;;;;22.67;11.43;;;;;11.20;101482.00;;;;5102266;28;20230;-68
2022/03/17 00:23:33;;;;;;;25.30;11.47;;;;;11.20;101484.00;;;;5091389;28;20303;-66
2022/03/17 00:26:19;;;;;;;22.20;11.77;;;;;11.10;101489.00;;;;5104711;28;20230;-66
2022/03/17 00:29:07;;;;;;;26.30;11.50;;;;;11.10;101496.00;;;;5104856;28;21001;-66
2022/03/17 00:31:53;;;;;;;19.77;11.57;;;;;11.20;101496.00;;;;5092370;28;20230;-68
2022/03/17 00:37:41;;;;;;;19.43;10.90;;;;;11.10;101494.00;;;;5102136;28;20292;-67
2022/03/17 00:40:28;;;;;;;22.70;11.00;;;;;11.10;101494.00;;;;5104317;28;20765;-68
2022/03/17 00:43:15;;;;;;;19.07;11.30;;;;;11.00;101494.00;;;;5104374;28;20843;-69
2022/03/17 00:46:02;;;;;;;19.27;10.90;;;;;11.20;101500.00;;;;5104623;28;20249;-68
2022/03/17 00:48:48;;;;;;;22.37;10.90;;;;;11.20;101496.00;;;;5090967;28;20304;-68
2022/03/17 00:51:35;;;;;;;22.23;11.67;;;;;11.20;101496.00;;;;5097609;28;20728;-66
2022/03/17 00:54:23;;;;;;;20.77;11.70;;;;;11.10;101487.00;;;;5104351;28;20309;-68
2022/03/17 00:57:10;;;;;;;20.07;11.57;;;;;11.10;101493.00;;;;5102261;28;20936;-66
2022/03/17 00:59:56;;;;;;;22.57;12.50;;;;;11.00;101498.00;;;;5092404;28;20249;-65
2022/03/17 01:02:43;;;;;;;23.13;12.30;;;;;11.10;101489.00;;;;5071734;28;20288;-68
2022/03/17 01:05:29;;;;;;;21.60;11.77;;;;;11.10;101485.00;;;;5084034;28;20728;-67
2022/03/17 01:08:16;;;;;;;21.63;12.33;;;;;11.20;101476.00;;;;5084043;28;20333;-66
2022/03/17 01:11:04;;;;;;;22.60;13.10;;;;;11.10;101478.00;;;;5081424;28;20252;-68
2022/03/17 01:13:50;;;;;;;20.77;11.80;;;;;11.10;101479.00;;;;5073274;28;20227;-69
2022/03/17 01:16:37;;;;;;;22.67;12.20;;;;;11.20;101437.00;;;;5082430;28;20227;-67
2022/03/17 01:19:23;;;;;;;21.37;11.87;;;;;11.00;101473.00;;;;5091086;28;20256;-70
2022/03/17 01:22:11;;;;;;;20.53;12.13;;;;;11.10;101466.00;;;;5098150;28;20290;-67
2022/03/17 01:24:57;;;;;;;22.77;11.37;;;;;11.10;101460.00;;;;5097091;28;20230;-64
2022/03/17 01:27:45;;;;;;;23.00;12.17;;;;;11.10;101459.00;;;;5103452;28;20234;-68
2022/03/17 01:30:32;;;;;;;23.20;11.80;;;;;11.10;101450.00;;;;5106588;27;20238;-65
2022/03/17 01:33:18;;;;;;;21.80;12.27;;;;;11.20;101439.00;;;;5082395;27;20266;-68
2022/03/17 01:36:05;;;;;;;23.30;12.07;;;;;11.10;101437.00;;;;5100164;27;20689;-66
2022/03/17 01:38:51;;;;;;;22.67;12.20;;;;;11.10;101439.00;;;;5093317;28;20806;-68
2022/03/17 01:41:39;;;;;;;22.17;12.13;;;;;11.10;101443.00;;;;5101203;28;20269;-63
2022/03/17 01:44:27;;;;;;;19.10;11.33;;;;;11.00;101442.00;;;;5103697;27;20732;-66
2022/03/17 01:47:28;;;;;;;21.40;11.77;;;;;10.90;101448.00;;;;5088011;28;20269;-66
2022/03/17 01:50:16;;;;;;;22.23;12.03;;;;;11.00;101430.00;;;;5078763;28;20227;-64
2022/03/17 01:53:02;;;;;;;20.70;11.97;;;;;11.10;101431.00;;;;5107679;27;20223;-68
2022/03/17 01:55:48;;;;;;;21.50;11.87;;;;;11.00;101435.00;;;;5093641;28;20377;-66
2022/03/17 01:58:35;;;;;;;20.03;11.50;;;;;11.00;101411.00;;;;5107152;28;20236;-67
2022/03/17 02:01:22;;;;;;;26.47;12.30;;;;;11.00;101438.00;;;;5094554;27;20307;-67
2022/03/17 02:04:09;;;;;;;24.10;11.90;;;;;11.00;101429.00;;;;5107897;27;20230;-68
2022/03/17 02:06:56;;;;;;;20.50;11.33;;;;;11.00;101430.00;;;;5107380;28;20273;-67
2022/03/17 02:09:44;;;;;;;23.47;12.87;;;;;11.00;101425.00;;;;5071805;28;20231;-66
2022/03/17 02:15:36;;;;;;;22.47;11.73;;;;;10.90;101433.00;;;;5086522;28;20242;-66
2022/03/17 02:18:24;;;;;;;21.00;11.83;;;;;11.00;101416.00;;;;5079307;28;20240;-63
2022/03/17 02:21:11;;;;;;;19.10;11.63;;;;;10.90;101436.00;;;;5086123;28;20239;-66
2022/03/17 02:27:04;;;;;;;23.27;11.87;;;;;11.00;101424.00;;;;5113239;28;20238;-69
2022/03/17 02:29:50;;;;;;;21.87;11.90;;;;;11.10;101408.00;;;;5095934;28;20737;-67
2022/03/17 02:32:37;;;;;;;20.63;11.00;;;;;11.10;101423.00;;;;5106287;27;20726;-68
2022/03/17 02:35:23;;;;;;;22.67;11.97;;;;;11.20;101419.00;;;;5094275;28;20222;-69
2022/03/17 02:38:13;;;;;;;19.33;11.03;;;;;11.10;101415.00;;;;5068351;28;20273;-67
2022/03/17 02:41:01;;;;;;;20.20;11.87;;;;;11.20;101422.00;;;;5089146;28;20227;-67
2022/03/17 02:43:47;;;;;;;20.37;11.87;;;;;11.00;101423.00;;;;5103658;28;20828;-67
2022/03/17 02:46:34;;;;;;;19.87;11.37;;;;;11.10;101416.00;;;;5102594;28;20239;-63
2022/03/17 02:49:20;;;;;;;20.63;11.57;;;;;11.10;101419.00;;;;5105423;28;20848;-67
2022/03/17 02:52:07;;;;;;;24.93;12.87;;;;;11.20;101417.00;;;;5088591;28;20730;-65
2022/03/17 02:54:54;;;;;;;20.00;10.90;;;;;11.20;101414.00;;;;5084797;28;20716;-67
2022/03/17 02:57:45;;;;;;;24.40;12.70;;;;;11.20;101412.00;;;;5085163;28;20906;-69
2022/03/17 03:00:31;;;;;;;20.77;11.63;;;;;11.20;101409.00;;;;5103405;28;20380;-68
2022/03/17 03:03:18;;;;;;;22.60;12.80;;;;;11.10;101409.00;;;;5103153;28;20241;-66
2022/03/17 03:06:06;;;;;;;22.30;11.37;;;;;11.10;101408.00;;;;5106209;28;20232;-65
2022/03/17 03:08:53;;;;;;;23.97;13.33;;;;;11.00;101401.00;;;;5092678;28;20231;-67
2022/03/17 03:11:39;;;;;;;28.27;12.13;;;;;11.10;101417.00;;;;5082341;28;20296;-65
2022/03/17 03:14:27;;;;;;;23.83;13.00;;;;;11.00;101405.00;;;;5105353;28;20312;-64
2022/03/17 03:17:13;;;;;;;23.07;12.80;;;;;11.20;101413.00;;;;5106175;28;20700;-67
2022/03/17 03:20:00;;;;;;;20.10;12.20;;;;;11.30;101415.00;;;;5096422;28;20225;-67
2022/03/17 03:22:46;;;;;;;23.73;12.93;;;;;11.20;101416.00;;;;5090732;28;20234;-67
2022/03/17 03:25:32;;;;;;;23.03;12.63;;;;;11.10;101425.00;;;;5105548;28;20327;-68
2022/03/17 03:28:19;;;;;;;24.20;12.40;;;;;11.20;101440.00;;;;5096689;28;20748;-66
2022/03/17 03:31:08;;;;;;;23.00;12.77;;;;;11.10;101438.00;;;;5102875;28;20589;-65
2022/03/17 03:33:54;;;;;;;24.37;12.40;;;;;11.20;101439.00;;;;5092689;28;20235;-67
2022/03/17 03:39:45;;;;;;;23.67;12.20;;;;;11.10;101430.00;;;;5089625;28;20234;-67
2022/03/17 03:42:31;;;;;;;20.97;12.03;;;;;11.00;101445.00;;;;5097043;28;20257;-67
2022/03/17 03:45:18;;;;;;;23.70;13.80;;;;;11.10;101439.00;;;;5099011;28;20234;-65
2022/03/17 03:48:06;;;;;;;23.80;13.47;;;;;11.20;101413.00;;;;5105294;28;20230;-69
2022/03/17 03:50:52;;;;;;;25.80;13.30;;;;;11.30;101415.00;;;;5091550;28;20238;-65
2022/03/17 03:56:44;;;;;;;23.87;13.20;;;;;11.20;101448.00;;;;5089323;28;20319;-66
2022/03/17 03:59:31;;;;;;;23.23;13.17;;;;;11.20;101462.00;;;;5104257;28;20233;-65
2022/03/17 04:02:17;;;;;;;23.67;11.90;;;;;11.10;101463.00;;;;5097290;28;20268;-67
2022/03/17 04:05:06;;;;;;;19.93;12.60;;;;;11.10;101470.00;;;;5102386;28;20226;-66
2022/03/17 04:07:55;;;;;;;25.70;14.40;;;;;11.40;101461.00;;;;5091976;28;20292;-67
2022/03/17 04:10:41;;;;;;;23.63;13.00;;;;;11.30;101474.00;;;;5088445;28;20778;-67
2022/03/17 04:13:27;;;;;;;29.53;14.37;;;;;11.30;101484.00;;;;5101806;28;20361;-66
2022/03/17 04:16:14;;;;;;;23.57;12.80;;;;;11.40;101486.00;;;;5074385;28;20227;-67
2022/03/17 04:19:01;;;;;;;25.33;14.13;;;;;11.60;101479.00;;;;5086445;28;20222;-66
2022/03/17 04:21:50;;;;;;;25.30;13.70;;;;;11.50;101489.00;;;;5060802;28;20300;-66
2022/03/17 04:24:37;;;;;;;30.20;13.97;;;;;11.50;101488.00;;;;5084084;28;20231;-67
2022/03/17 04:27:23;;;;;;;28.27;14.53;;;;;11.60;101494.00;;;;5072339;28;20231;-67
2022/03/17 04:30:10;;;;;;;24.13;13.50;;;;;11.60;101503.00;;;;5072852;28;20244;-67
2022/03/17 04:32:56;;;;;;;25.17;14.03;;;;;11.60;101498.00;;;;5072312;28;20336;-65
2022/03/17 04:35:42;;;;;;;26.30;14.27;;;;;11.50;101502.00;;;;5065145;28;20223;-67
2022/03/17 04:38:30;;;;;;;24.03;12.87;;;;;11.60;101507.00;;;;5074089;28;20706;-66
2022/03/17 04:41:17;;;;;;;26.63;14.80;;;;;11.90;101511.00;;;;5071895;28;20227;-69
2022/03/17 04:44:04;;;;;;;26.37;14.33;;;;;11.90;101512.00;;;;5105219;28;20288;-68
2022/03/17 04:46:50;;;;;;;29.47;14.77;;;;;11.80;101520.00;;;;5103051;28;20226;-67
2022/03/17 04:49:37;;;;;;;23.17;13.37;;;;;11.80;101523.00;;;;5105027;28;20230;-69
2022/03/17 04:55:29;;;;;;;24.83;14.57;;;;;11.80;101540.00;;;;5078412;28;20273;-67
2022/03/17 04:58:15;;;;;;;28.07;14.53;;;;;11.70;101550.00;;;;5084283;28;20222;-68
2022/03/17 05:01:02;;;;;;;30.50;15.73;;;;;11.70;101530.00;;;;5083518;28;20302;-65
2022/03/17 05:03:48;;;;;;;27.63;15.13;;;;;11.90;101547.00;;;;5073107;28;20231;-67
2022/03/17 05:06:35;;;;;;;25.83;14.67;;;;;12.00;101556.00;;;;5086085;28;20695;-68
2022/03/17 05:09:21;;;;;;;26.93;14.47;;;;;12.00;101565.00;;;;5088059;28;20955;-67
2022/03/17 05:12:11;;;;;;;27.90;14.83;;;;;12.20;101573.00;;;;5088493;28;20303;-67
2022/03/17 05:14:58;;;;;;;27.57;14.77;;;;;12.40;101584.00;;;;5079172;28;20227;-67
2022/03/17 05:17:44;;;;;;;32.43;16.13;;;;;12.40;101580.00;;;;5070819;28;20232;-67
2022/03/17 05:20:30;;;;;;;32.83;16.70;;;;;12.30;101583.00;;;;5086279;28;20231;-68
2022/03/17 05:23:19;;;;;;;36.43;16.97;;;;;12.20;101599.00;;;;5087789;28;20234;-66
2022/03/17 05:26:07;;;;;;;34.97;17.00;;;;;12.00;101617.00;;;;5088386;28;20738;-69
2022/03/17 05:28:54;;;;;;;39.40;18.80;;;;;12.10;101621.00;;;;5074800;28;20567;-68
2022/03/17 05:31:41;;;;;;;37.27;18.87;;;;;11.90;101625.00;;;;5071913;28;20314;-66
2022/03/17 05:34:28;;;;;;;37.30;18.23;;;;;11.80;101624.00;;;;5087684;28;20242;-68
2022/03/17 05:37:14;;;;;;;37.90;18.10;;;;;11.70;101646.00;;;;5088282;28;20320;-67
2022/03/17 05:40:02;;;;;;;37.40;20.33;;;;;11.70;101651.00;;;;5084939;28;20681;-67
2022/03/17 05:42:49;;;;;;;36.70;18.47;;;;;11.60;101656.00;;;;5062081;28;20235;-67
2022/03/17 05:45:38;;;;;;;37.57;19.43;;;;;11.40;101657.00;;;;5088578;28;20235;-68
2022/03/17 05:48:24;;;;;;;44.73;18.87;;;;;11.30;101653.00;;;;5107365;28;20230;-67
2022/03/17 05:51:10;;;;;;;39.20;20.60;;;;;11.30;101699.00;;;;5108076;28;20289;-67
2022/03/17 05:53:56;;;;;;;36.57;19.53;;;;;11.30;101691.00;;;;5107483;28;20246;-67
2022/03/17 05:56:42;;;;;;;41.53;19.67;;;;;11.20;101700.00;;;;5090447;28;20280;-67
2022/03/17 05:59:29;;;;;;;40.70;19.97;;;;;11.30;101702.00;;;;5104550;28;20227;-67
2022/03/17 06:02:16;;;;;;;50.60;22.27;;;;;11.30;101712.00;;;;5100352;28;20302;-67
2022/03/17 06:05:03;;;;;;;43.90;20.47;;;;;11.20;101715.00;;;;5096696;28;20340;-67
2022/03/17 06:07:51;;;;;;;41.07;20.90;;;;;11.00;101712.00;;;;5090303;28;20699;-67
2022/03/17 06:10:38;;;;;;;46.60;21.17;;;;;11.10;101721.00;;;;5106958;28;20223;-67
2022/03/17 06:13:24;;;;;;;43.23;21.83;;;;;11.10;101732.00;;;;5107388;28;20226;-67
2022/03/17 06:16:10;;;;;;;43.67;21.37;;;;;11.00;101730.00;;;;5107360;27;20261;-68
2022/03/17 06:18:58;;;;;;;50.13;22.87;;;;;11.10;101746.00;;;;5100500;28;20277;-64
2022/03/17 06:21:44;;;;;;;47.73;22.70;;;;;11.10;101752.00;;;;5075052;28;20330;-66
2022/03/17 06:24:31;;;;;;;44.97;21.97;;;;;11.00;101767.00;;;;5106869;28;20302;-68
2022/03/17 06:27:17;;;;;;;48.17;23.50;;;;;11.00;101792.00;;;;5106908;28;20373;-66
2022/03/17 06:30:04;;;;;;;39.50;19.87;;;;;11.00;101789.00;;;;5107039;27;20704;-67
2022/03/17 06:32:50;;;;;;;39.50;19.10;;;;;10.90;101788.00;;;;5093436;28;20364;-69
2022/03/17 06:35:38;;;;;;;35.80;16.07;;;;;10.80;101816.00;;;;5107027;28;20696;-67
2022/03/17 06:38:24;;;;;;;33.23;15.70;;;;;10.80;101812.00;;;;5077752;28;20497;-68
2022/03/17 06:41:10;;;;;;;23.87;12.87;;;;;10.80;101815.00;;;;5080926;28;20428;-69
2022/03/17 06:43:56;;;;;;;21.03;10.53;;;;;10.60;101823.00;;;;5093955;28;20230;-70
2022/03/17 06:46:42;;;;;;;21.90;9.77;;;;;10.60;101838.00;;;;5092083;28;20311;-70
2022/03/17 06:49:28;;;;;;;17.03;8.57;;;;;10.60;101842.00;;;;5076718;28;20240;-67
2022/03/17 06:52:16;;;;;;;15.80;8.07;;;;;10.60;101856.00;;;;5071505;28;20594;-67
2022/03/17 06:55:02;;;;;;;14.27;8.13;;;;;10.30;101850.00;;;;5075570;28;20274;-67
2022/03/17 06:57:48;;;;;;;13.77;7.80;;;;;10.40;101864.00;;;;5072369;28;20261;-67
2022/03/17 07:00:34;;;;;;;13.10;7.57;;;;;10.30;101885.00;;;;5081049;28;20238;-69
2022/03/17 07:03:21;;;;;;;13.63;8.07;;;;;10.30;101882.00;;;;5076695;28;20246;-66
2022/03/17 07:06:07;;;;;;;13.00;8.03;;;;;10.20;101888.00;;;;5079378;28;20603;-67
2022/03/17 07:08:55;;;;;;;13.93;7.73;;;;;10.10;101897.00;;;;5093006;28;20303;-69
2022/03/17 07:11:42;;;;;;;20.17;8.17;;;;;10.10;101904.00;;;;5087494;28;20713;-69
2022/03/17 07:14:29;;;;;;;18.23;8.90;;;;;10.10;101906.00;;;;5083324;28;20231;-68
2022/03/17 07:17:19;;;;;;;16.17;8.33;;;;;10.00;101923.00;;;;5099203;28;20236;-73
2022/03/17 07:20:06;;;;;;;13.37;8.03;;;;;10.00;101929.00;;;;5090118;28;20252;-69
2022/03/17 07:22:53;;;;;;;16.87;8.07;;;;;10.00;101939.00;;;;5099767;28;20242;-68
2022/03/17 07:25:41;;;;;;;14.17;8.93;;;;;10.00;101939.00;;;;5093583;27;20829;-68
2022/03/17 07:28:27;;;;;;;17.67;9.63;;;;;9.80;101942.00;;;;5080877;28;20907;-69
2022/03/17 07:31:14;;;;;;;18.63;8.93;;;;;9.90;101950.00;;;;5091497;28;20248;-68
2022/03/17 07:34:00;;;;;;;17.93;8.30;;;;;10.10;101959.00;;;;5080552;28;20279;-68
2022/03/17 07:36:47;;;;;;;15.03;8.47;;;;;10.10;101957.00;;;;5066145;28;20709;-67
2022/03/17 07:39:33;;;;;;;14.33;8.70;;;;;10.00;101967.00;;;;5082626;28;20310;-68
2022/03/17 07:42:21;;;;;;;16.13;9.17;;;;;10.10;101964.00;;;;5090143;28;20287;-69
2022/03/17 07:45:07;;;;;;;18.00;8.60;;;;;10.10;101975.00;;;;5094220;28;20309;-67
2022/03/17 07:47:54;;;;;;;18.13;7.83;;;;;10.30;101979.00;;;;5083627;28;20248;-68
2022/03/17 07:50:40;;;;;;;15.03;8.27;;;;;10.20;101980.00;;;;5104416;28;20292;-67
2022/03/17 07:53:27;;;;;;;17.50;7.63;;;;;10.20;101990.00;;;;5104743;28;20246;-66
2022/03/17 07:56:14;;;;;;;17.43;7.70;;;;;10.00;102008.00;;;;5105788;28;20234;-68
2022/03/17 07:59:03;;;;;;;15.90;7.30;;;;;10.10;102004.00;;;;5100385;28;20231;-68
2022/03/17 08:01:49;;;;;;;12.30;6.93;;;;;10.10;102018.00;;;;5097266;28;20225;-67
2022/03/17 08:04:36;;;;;;;14.10;6.97;;;;;10.00;102013.00;;;;5105157;28;20306;-67
2022/03/17 08:07:23;;;;;;;12.70;6.30;;;;;10.00;102021.00;;;;5105934;28;20303;-68
2022/03/17 08:10:11;;;;;;;11.40;6.87;;;;;10.00;102035.00;;;;5102434;28;20225;-66
2022/03/17 08:13:05;;;;;;;9.87;6.00;;;;;10.00;102031.00;;;;5094552;28;20231;-67
2022/03/17 08:15:54;;;;;;;13.30;5.80;;;;;10.00;102034.00;;;;5092034;28;20230;-68
2022/03/17 08:18:41;;;;;;;12.63;6.40;;;;;10.00;102040.00;;;;5098651;28;20225;-64
2022/03/17 08:21:29;;;;;;;13.33;6.00;;;;;9.90;102040.00;;;;5095797;28;20241;-69
2022/03/17 08:24:15;;;;;;;13.40;5.70;;;;;9.90;102054.00;;;;5085543;28;20235;-69
2022/03/17 08:27:02;;;;;;;14.10;5.20;;;;;9.90;102064.00;;;;5082827;28;20800;-68
2022/03/17 08:29:48;;;;;;;9.33;4.97;;;;;9.90;102064.00;;;;5070605;28;20251;-70
2022/03/17 08:32:36;;;;;;;13.27;5.43;;;;;10.00;102072.00;;;;5075644;28;20238;-65
2022/03/17 08:35:22;;;;;;;13.17;5.83;;;;;9.80;102083.00;;;;5084602;28;20272;-69
2022/03/17 08:38:09;;;;;;;11.80;5.47;;;;;10.00;102083.00;;;;5085357;28;20700;-66
2022/03/17 08:40:55;;;;;;;15.20;5.60;;;;;10.10;102100.00;;;;5078977;28;20231;-68
2022/03/17 08:43:41;;;;;;;10.23;4.77;;;;;10.20;102094.00;;;;5088222;28;20237;-67
2022/03/17 08:49:47;;;;;;;6.33;4.70;;;;;10.40;102116.00;;;;5018430;28;20235;-65
2022/03/17 08:52:33;;;;;;;9.33;4.47;;;;;10.40;102116.00;;;;5027030;28;20244;-68
2022/03/17 08:55:20;;;;;;;14.00;5.13;;;;;10.20;102133.00;;;;5057691;28;20725;-70
2022/03/17 08:58:08;;;;;;;11.43;4.90;;;;;10.30;102131.00;;;;5102657;28;20233;-65
2022/03/17 09:00:54;;;;;;;8.67;4.40;;;;;10.30;102134.00;;;;5081920;28;20231;-67
2022/03/17 09:03:41;;;;;;;10.17;4.77;;;;;10.40;102146.00;;;;5084066;28;20231;-67
2022/03/17 09:06:28;;;;;;;13.60;4.70;;;;;10.40;102148.00;;;;5084362;28;20250;-69
2022/03/17 09:09:17;;;;;;;9.83;4.00;;;;;10.30;102156.00;;;;5081486;28;20245;-68
2022/03/17 09:12:06;;;;;;;13.07;4.40;;;;;10.20;102153.00;;;;5081901;28;20287;-67
2022/03/17 09:14:52;;;;;;;11.47;4.60;;;;;10.10;102162.00;;;;5070816;28;20234;-65
2022/03/17 09:17:41;;;;;;;11.57;4.80;;;;;10.20;102165.00;;;;5071615;28;20383;-67
2022/03/17 09:20:27;;;;;;;10.57;5.07;;;;;10.20;102158.00;;;;5099143;28;20235;-66
2022/03/17 09:23:16;;;;;;;7.80;4.33;;;;;10.20;102167.00;;;;5085185;28;20280;-66
2022/03/17 09:26:02;;;;;;;9.57;4.57;;;;;10.40;102185.00;;;;5070559;28;20348;-66
2022/03/17 09:28:51;;;;;;;7.97;3.93;;;;;10.20;102180.00;;;;5069203;28;20286;-66
2022/03/17 09:31:37;;;;;;;5.67;3.93;;;;;10.20;102182.00;;;;5084456;28;20227;-68
2022/03/17 09:34:24;;;;;;;8.57;4.27;;;;;10.30;102198.00;;;;5062545;28;20741;-68
2022/03/17 09:37:10;;;;;;;5.70;4.20;;;;;10.30;102203.00;;;;5081898;28;20237;-69
2022/03/17 09:39:58;;;;;;;9.93;3.90;;;;;10.20;102198.00;;;;5081310;28;20867;-68
2022/03/17 09:42:44;;;;;;;6.87;4.00;;;;;10.30;102200.00;;;;5089537;28;20232;-68
2022/03/17 09:45:30;;;;;;;7.60;3.67;;;;;10.20;102220.00;;;;5097856;28;20251;-70
2022/03/17 09:48:19;;;;;;;8.07;3.60;;;;;10.30;102219.00;;;;5104162;28;20246;-68
2022/03/17 09:51:06;;;;;;;5.83;3.23;;;;;10.50;102248.00;;;;5106374;28;20299;-68
2022/03/17 09:53:54;;;;;;;4.13;2.90;;;;;10.60;102236.00;;;;5095661;28;20304;-67
2022/03/17 09:56:41;;;;;;;4.33;2.77;;;;;10.60;102234.00;;;;5108208;28;20222;-71
2022/03/17 09:59:27;;;;;;;5.83;2.77;;;;;10.70;102246.00;;;;5098149;28;20847;-71
2022/03/17 10:02:16;;;;;;;9.57;3.10;;;;;10.70;102252.00;;;;5085068;28;20314;-67
2022/03/17 10:05:03;;;;;;;2.80;1.93;;;;;10.80;102253.00;;;;5106866;28;20247;-66
2022/03/17 10:07:51;;;;;;;7.27;2.23;;;;;10.80;102256.00;;;;5100401;28;20223;-66
2022/03/17 10:10:38;;;;;;;4.57;1.90;;;;;10.80;102255.00;;;;5105811;28;20223;-69
2022/03/17 10:13:28;;;;;;;5.40;1.80;;;;;10.50;102267.00;;;;5104029;28;20237;-66
2022/03/17 10:16:18;;;;;;;7.60;1.60;;;;;10.60;102274.00;;;;5092611;28;20701;-68
2022/03/17 10:19:05;;;;;;;4.73;2.03;;;;;10.40;102279.00;;;;5081400;28;20308;-71
2022/03/17 10:21:51;;;;;;;5.67;1.60;;;;;10.60;102283.00;;;;5085442;28;20280;-68
2022/03/17 10:24:39;;;;;;;5.17;1.70;;;;;10.50;102286.00;;;;5101527;28;20726;-69
2022/03/17 10:27:38;;;;;;;4.03;1.57;;;;;10.60;102297.00;;;;5082501;28;20286;-68
2022/03/17 10:30:32;;;;;;;3.07;2.17;;;;;10.70;102300.00;;;;5087230;28;20237;-69
2022/03/17 10:33:21;;;;;;;3.93;1.77;;;;;10.80;102308.00;;;;5077148;28;20231;-70
2022/03/17 10:36:15;;;;;;;4.03;1.50;;;;;10.70;102318.00;;;;5090194;28;20345;-69
2022/03/17 10:39:09;;;;;;;4.30;1.60;;;;;10.80;102315.00;;;;5106332;28;20763;-69
2022/03/17 10:41:55;;;;;;;5.17;1.60;;;;;11.00;102331.00;;;;5076943;28;20711;-69
2022/03/17 10:44:42;;;;;;;5.43;1.63;;;;;10.90;102332.00;;;;5082040;28;20226;-68
2022/03/17 10:47:33;;;;;;;3.53;1.60;;;;;10.70;102341.00;;;;5085847;28;20237;-69
2022/03/17 10:50:26;;;;;;;5.23;1.63;;;;;10.70;102340.00;;;;5100586;28;20229;-68
2022/03/17 10:53:13;;;;;;;2.87;1.50;;;;;10.70;102349.00;;;;5076183;28;20231;-67
2022/03/17 10:56:12;;;;;;;5.73;1.70;;;;;10.70;102354.00;;;;5093362;28;20292;-68
2022/03/17 10:59:00;;;;;;;10.07;2.20;;;;;10.80;102362.00;;;;5080851;28;20714;-68
2022/03/17 11:02:08;;;;;;;3.00;1.40;;;;;10.80;102381.00;;;;5087738;28;20226;-68
2022/03/17 11:04:56;;;;;;;7.17;1.70;;;;;10.80;102367.00;;;;5089880;28;20231;-70
2022/03/17 11:07:45;;;;;;;9.07;2.27;;;;;10.80;102367.00;;;;5106135;28;20226;-69
2022/03/17 11:10:32;;;;;;;9.07;2.00;;;;;10.90;102367.00;;;;5102420;28;20238;-69
2022/03/17 11:13:19;;;;;;;4.50;2.27;;;;;11.00;102358.00;;;;5102579;28;20231;-67
2022/03/17 11:16:09;;;;;;;3.87;1.90;;;;;11.10;102394.00;;;;5102418;28;20242;-67
2022/03/17 11:18:56;;;;;;;4.87;1.47;;;;;11.20;102397.00;;;;5081164;28;20235;-69
2022/03/17 11:21:48;;;;;;;4.43;1.50;;;;;11.20;102373.00;;;;5102404;28;20749;-69
2022/03/17 11:24:34;;;;;;;3.10;1.43;;;;;11.30;102386.00;;;;5081219;28;20303;-67
2022/03/17 11:27:22;;;;;;;9.10;1.83;;;;;11.50;102396.00;;;;5084894;28;20706;-70
2022/03/17 11:30:13;;;;;;;4.67;1.63;;;;;11.50;102397.00;;;;5084263;28;20253;-70
2022/03/17 11:33:02;;;;;;;3.70;1.50;;;;;11.50;102391.00;;;;5075950;28;20223;-69
2022/03/17 11:35:54;;;;;;;9.27;1.70;;;;;11.50;102410.00;;;;5062106;28;20232;-68
2022/03/17 11:41:44;;;;;;;6.70;1.73;;;;;11.20;102418.00;;;;5063646;28;20285;-68
2022/03/17 11:44:32;;;;;;;2.27;1.40;;;;;11.20;102420.00;;;;5056112;28;20731;-64
2022/03/17 11:47:27;;;;;;;6.43;1.57;;;;;11.10;102409.00;;;;5086339;28;20241;-68
2022/03/17 11:50:41;;;;;;;5.07;1.90;;;;;11.30;102422.00;;;;5078966;28;20248;-68
2022/03/17 11:53:39;;;;;;;7.53;1.57;;;;;11.60;102424.00;;;;5084523;28;20247;-67
2022/03/17 11:56:40;;;;;;;4.70;1.87;;;;;11.60;102425.00;;;;5104972;28;20369;-67
2022/03/17 11:59:50;;;;;;;3.80;1.63;;;;;11.70;102422.00;;;;5083663;28;20250;-64
2022/03/17 12:02:36;;;;;;;4.43;1.63;;;;;11.70;102438.00;;;;5076915;28;20236;-66
2022/03/17 12:05:22;;;;;;;6.50;1.70;;;;;11.70;102442.00;;;;5084913;28;20231;-67
2022/03/17 12:08:09;;;;;;;4.87;2.00;;;;;11.80;102430.00;;;;5084029;28;20227;-67
2022/03/17 12:11:06;;;;;;;3.23;1.40;;;;;11.70;102448.00;;;;5092163;28;20236;-63
2022/03/17 12:14:21;;;;;;;4.17;1.60;;;;;11.50;102454.00;;;;5070530;28;20369;-68
2022/03/17 12:17:17;;;;;;;5.00;1.53;;;;;11.60;102458.00;;;;5085026;28;20234;-68
2022/03/17 12:20:07;;;;;;;4.23;1.27;;;;;11.60;102439.00;;;;5074355;28;20304;-66
2022/03/17 12:22:53;;;;;;;6.23;1.60;;;;;11.70;102455.00;;;;5071022;28;20234;-69
2022/03/17 12:26:03;;;;;;;4.00;1.57;;;;;11.60;102466.00;;;;5084188;28;21137;-68
2022/03/17 12:28:50;;;;;;;3.63;1.33;;;;;11.70;102471.00;;;;5084667;28;20599;-66
2022/03/17 12:31:38;;;;;;;4.87;1.33;;;;;11.80;102465.00;;;;5084835;28;20235;-67
2022/03/17 12:34:24;;;;;;;4.20;1.60;;;;;11.90;102473.00;;;;5084401;28;20697;-63
2022/03/17 12:37:11;;;;;;;9.23;1.73;;;;;11.90;102489.00;;;;5085242;28;20246;-68
2022/03/17 12:39:59;;;;;;;3.67;1.50;;;;;11.80;102480.00;;;;5072706;28;20925;-67
2022/03/17 12:42:47;;;;;;;4.50;1.60;;;;;12.10;102479.00;;;;5093371;28;20289;-67
2022/03/17 12:45:38;;;;;;;1.87;1.23;;;;;11.90;102451.00;;;;5095255;28;20729;-67
2022/03/17 12:48:26;;;;;;;2.80;1.50;;;;;12.20;102483.00;;;;5101622;28;20726;-67
2022/03/17 12:51:13;;;;;;;4.10;1.40;;;;;12.00;102477.00;;;;5106194;28;20231;-67
2022/03/17 12:54:00;;;;;;;5.27;1.87;;;;;12.00;102488.00;;;;5098010;28;20223;-72
2022/03/17 12:56:48;;;;;;;3.57;1.60;;;;;12.10;102488.00;;;;5083842;28;20246;-68
2022/03/17 12:59:34;;;;;;;3.70;1.80;;;;;12.00;102497.00;;;;5110017;28;20228;-70
2022/03/17 13:02:22;;;;;;;3.33;1.50;;;;;11.90;102502.00;;;;5104597;28;20223;-71
2022/03/17 13:08:11;;;;;;;3.70;1.57;;;;;12.20;102490.00;;;;5113564;28;20262;-70
2022/03/17 13:17:07;;;;;;;5.27;1.87;;;;;12.20;102506.00;;;;5117737;28;20226;-69
2022/03/17 13:19:53;;;;;;;6.27;1.87;;;;;12.20;102511.00;;;;5097458;28;20277;-70
2022/03/17 13:22:42;;;;;;;7.50;1.90;;;;;12.40;102504.00;;;;5114093;28;20219;-73
2022/03/17 13:25:30;;;;;;;3.33;1.80;;;;;12.30;102509.00;;;;5107621;28;20288;-68
2022/03/17 13:28:20;;;;;;;8.23;2.20;;;;;12.10;102512.00;;;;5080018;28;20709;-67
2022/03/17 13:31:08;;;;;;;5.17;2.10;;;;;12.10;102520.00;;;;5078537;28;20273;-64
2022/03/17 13:33:54;;;;;;;6.90;1.90;;;;;12.10;102513.00;;;;5094945;28;20230;-68
2022/03/17 13:36:54;;;;;;;7.13;1.80;;;;;12.00;102519.00;;;;5105581;28;20231;-69
2022/03/17 13:39:41;;;;;;;5.10;1.80;;;;;12.00;102527.00;;;;5107675;28;20227;-66
2022/03/17 13:42:28;;;;;;;5.53;1.70;;;;;12.10;102533.00;;;;5080622;28;20839;-67
2022/03/17 13:45:30;;;;;;;5.97;1.83;;;;;12.30;102527.00;;;;5084014;28;20227;-70
2022/03/17 13:48:17;;;;;;;2.67;2.00;;;;;12.20;102534.00;;;;5100890;28;20756;-67
2022/03/17 13:51:04;;;;;;;6.53;1.97;;;;;12.40;102541.00;;;;5098166;28;20273;-71
2022/03/17 13:53:50;;;;;;;5.43;1.77;;;;;12.20;102550.00;;;;5076036;28;20975;-67
2022/03/17 13:56:37;;;;;;;3.70;1.73;;;;;12.20;102542.00;;;;5086095;28;20284;-66
2022/03/17 13:59:24;;;;;;;6.50;1.70;;;;;12.30;102546.00;;;;5087612;28;20222;-68
2022/03/17 14:02:11;;;;;;;8.87;1.97;;;;;12.20;102538.00;;;;5080118;28;20234;-66
2022/03/17 14:04:58;;;;;;;5.60;1.73;;;;;12.20;102545.00;;;;5085396;28;20293;-66
2022/03/17 14:07:45;;;;;;;1.77;1.40;;;;;12.00;102557.00;;;;5108306;28;20226;-69
2022/03/17 14:10:32;;;;;;;7.03;2.10;;;;;12.20;102553.00;;;;5086449;28;20223;-68
2022/03/17 14:13:20;;;;;;;4.20;1.93;;;;;12.20;102560.00;;;;5087489;28;20222;-69